createdAt,value
2022-11-15T00:02:07.913Z,0.15
2022-11-15T00:04:34.820Z,0.38
2022-11-15T00:07:01.135Z,0.30
2022-11-15T00:09:27.399Z,0.30
2022-11-15T00:11:53.647Z,0.30
2022-11-15T00:14:19.951Z,0.40
2022-11-15T00:16:46.290Z,1.02
2022-11-15T00:19:12.501Z,0.40
2022-11-15T00:21:38.740Z,0.40
2022-11-15T00:24:05.062Z,0.40
2022-11-15T00:26:31.335Z,0.50
2022-11-15T00:28:57.550Z,0.30
2022-11-15T00:31:23.752Z,0.50
2022-11-15T00:33:49.989Z,0.80
2022-11-15T00:36:16.297Z,1.13
2022-11-15T00:38:42.784Z,1.02
2022-11-15T00:41:10.179Z,0.73
2022-11-15T00:43:36.769Z,1.23
2022-11-15T00:46:03.284Z,0.60
2022-11-15T00:48:29.771Z,0.70
2022-11-15T00:50:56.009Z,0.68
2022-11-15T00:53:22.341Z,0.88
2022-11-15T00:55:48.552Z,0.50
2022-11-15T00:58:14.758Z,0.55
2022-11-15T01:00:41.094Z,0.43
2022-11-15T01:03:07.481Z,0.65
2022-11-15T01:05:33.707Z,0.55
2022-11-15T01:08:00.144Z,0.50
2022-11-15T01:10:26.770Z,0.50
2022-11-15T01:12:53.012Z,1.00
2022-11-15T01:15:19.231Z,0.40
2022-11-15T01:17:45.449Z,0.93
2022-11-15T01:20:11.914Z,0.40
2022-11-15T01:22:38.167Z,0.70
2022-11-15T01:25:04.578Z,1.08
2022-11-15T01:27:30.837Z,0.50
2022-11-15T01:29:57.057Z,0.60
2022-11-15T01:32:23.283Z,0.50
2022-11-15T01:34:49.489Z,0.70
2022-11-15T01:37:15.721Z,0.50
2022-11-15T01:39:41.946Z,1.35
2022-11-15T01:42:12.757Z,0.60
2022-11-15T01:44:41.262Z,0.35
2022-11-15T01:47:10.002Z,0.50
2022-11-15T01:49:38.671Z,0.50
2022-11-15T01:52:08.204Z,0.70
2022-11-15T01:54:34.671Z,1.33
2022-11-15T01:57:03.982Z,2.15
2022-11-15T01:59:30.329Z,0.65
2022-11-15T02:01:56.830Z,1.00
2022-11-15T02:04:27.692Z,0.85
2022-11-15T02:06:54.023Z,0.70
2022-11-15T02:09:20.562Z,1.20
2022-11-15T02:11:47.011Z,1.40
2022-11-15T02:14:15.446Z,0.50
2022-11-15T02:16:47.772Z,0.50
2022-11-15T02:19:29.332Z,0.40
2022-11-15T02:22:01.562Z,0.70
2022-11-15T02:24:27.831Z,0.68
2022-11-15T02:27:17.369Z,0.60
2022-11-15T02:30:01.292Z,0.52
2022-11-15T02:32:36.254Z,0.50
2022-11-15T02:35:07.377Z,0.50
2022-11-15T02:37:50.078Z,0.70
2022-11-15T02:40:35.621Z,0.45
2022-11-15T02:43:24.358Z,0.52
2022-11-15T02:45:52.673Z,0.40
2022-11-15T02:48:19.905Z,1.10
2022-11-15T02:50:46.137Z,0.57
2022-11-15T02:53:12.388Z,0.52
2022-11-15T02:55:41.379Z,0.35
2022-11-15T02:58:26.111Z,0.40
2022-11-15T03:01:09.551Z,0.50
2022-11-15T03:04:04.865Z,0.70
2022-11-15T03:06:47.304Z,0.28
2022-11-15T03:11:42.892Z,0.47
2022-11-15T03:14:09.089Z,0.40
2022-11-15T03:16:37.665Z,0.30
2022-11-15T03:19:22.465Z,0.40
2022-11-15T03:21:49.967Z,0.63
2022-11-15T03:24:18.165Z,0.25
2022-11-15T03:26:46.673Z,0.40
2022-11-15T03:29:18.007Z,0.45
2022-11-15T03:31:51.366Z,0.50
2022-11-15T03:34:31.450Z,0.20
2022-11-15T03:36:57.896Z,0.25
2022-11-15T03:39:24.497Z,0.22
2022-11-15T03:41:50.795Z,0.30
2022-11-15T03:44:32.546Z,0.40
2022-11-15T03:47:03.782Z,0.40
2022-11-15T03:49:32.443Z,0.50
2022-11-15T03:51:59.638Z,0.20
2022-11-15T03:54:26.016Z,0.40
2022-11-15T03:56:52.331Z,0.60
2022-11-15T03:59:18.583Z,0.40
2022-11-15T04:01:44.815Z,0.50
2022-11-15T04:04:11.112Z,0.60
2022-11-15T04:06:37.551Z,0.43
2022-11-15T04:09:04.138Z,0.32
2022-11-15T04:11:30.442Z,0.40
2022-11-15T04:13:56.670Z,0.30
2022-11-15T04:16:22.900Z,0.25
2022-11-15T04:19:09.127Z,0.20
2022-11-15T04:21:55.645Z,0.40
2022-11-15T04:24:21.932Z,0.45
2022-11-15T04:26:48.183Z,0.43
2022-11-15T04:29:32.939Z,0.30
2022-11-15T04:31:59.191Z,0.40
2022-11-15T04:34:25.456Z,0.30
2022-11-15T04:37:10.116Z,0.47
2022-11-15T04:39:36.392Z,0.38
2022-11-15T04:42:02.666Z,0.38
2022-11-15T04:44:28.903Z,0.30
2022-11-15T04:46:55.151Z,0.20
2022-11-15T04:49:21.427Z,0.22
2022-11-15T04:51:47.674Z,0.15
2022-11-15T04:54:13.898Z,0.43
2022-11-15T04:56:40.187Z,0.40
2022-11-15T04:59:06.440Z,0.30
2022-11-15T05:01:32.746Z,0.30
2022-11-15T05:04:17.558Z,0.20
2022-11-15T05:06:43.761Z,0.10
2022-11-15T05:09:10.090Z,0.40
2022-11-15T05:11:36.315Z,0.40
2022-11-15T05:14:02.752Z,0.32
2022-11-15T05:16:28.986Z,0.35
2022-11-15T05:18:55.598Z,0.22
2022-11-15T05:21:22.133Z,0.30
2022-11-15T05:23:48.408Z,0.35
2022-11-15T05:26:15.945Z,0.40
2022-11-15T05:28:42.174Z,0.20
2022-11-15T05:31:10.070Z,0.30
2022-11-15T05:33:36.850Z,0.30
2022-11-15T05:36:32.425Z,0.32
2022-11-15T05:38:58.788Z,0.68
2022-11-15T05:41:28.136Z,0.28
2022-11-15T05:43:54.570Z,0.20
2022-11-15T05:46:20.855Z,0.28
2022-11-15T05:48:49.570Z,0.15
2022-11-15T05:51:16.841Z,0.73
2022-11-15T05:53:43.595Z,0.30
2022-11-15T05:56:09.966Z,0.43
2022-11-15T05:58:36.837Z,0.35
2022-11-15T06:01:03.502Z,0.20
2022-11-15T06:03:30.172Z,0.43
2022-11-15T06:05:57.553Z,0.25
2022-11-15T06:08:23.835Z,0.30
2022-11-15T06:10:50.075Z,0.40
2022-11-15T06:13:16.334Z,0.22
2022-11-15T06:15:42.559Z,0.50
2022-11-15T06:18:08.808Z,0.20
2022-11-15T06:20:35.053Z,0.30
2022-11-15T06:23:02.235Z,0.40
2022-11-15T06:25:29.126Z,0.17
2022-11-15T06:27:55.811Z,0.35
2022-11-15T06:30:22.653Z,0.30
2022-11-15T06:32:48.876Z,0.47
2022-11-15T06:35:15.191Z,0.35
2022-11-15T06:37:41.736Z,0.45
2022-11-15T06:40:09.008Z,0.32
2022-11-15T06:42:35.262Z,0.30
2022-11-15T06:45:01.908Z,0.82
2022-11-15T06:47:28.151Z,0.80
2022-11-15T06:49:54.395Z,0.63
2022-11-15T06:52:20.655Z,0.40
2022-11-15T06:54:46.878Z,0.68
2022-11-15T06:57:13.098Z,0.30
2022-11-15T06:59:40.765Z,0.63
2022-11-15T07:02:07.305Z,0.30
2022-11-15T07:04:34.892Z,0.38
2022-11-15T07:07:01.174Z,0.40
2022-11-15T07:09:27.777Z,1.05
2022-11-15T07:11:53.978Z,0.60
2022-11-15T07:14:20.213Z,0.82
2022-11-15T07:16:46.476Z,0.40
2022-11-15T07:19:12.686Z,0.63
2022-11-15T07:21:38.894Z,0.40
2022-11-15T07:24:05.280Z,0.32
2022-11-15T07:26:31.503Z,0.52
2022-11-15T07:28:57.943Z,0.30
2022-11-15T07:31:24.174Z,0.40
2022-11-15T07:33:50.395Z,0.20
2022-11-15T07:36:16.669Z,0.25
2022-11-15T07:38:43.318Z,0.50
2022-11-15T07:41:09.592Z,0.30
2022-11-15T07:43:36.328Z,0.30
2022-11-15T07:46:10.322Z,0.50
2022-11-15T07:48:44.064Z,0.30
2022-11-15T07:51:14.169Z,0.20
2022-11-15T07:53:44.470Z,0.40
2022-11-15T07:56:10.781Z,0.25
2022-11-15T07:58:37.036Z,0.30
2022-11-15T08:01:04.650Z,0.50
2022-11-15T08:03:31.243Z,0.20
2022-11-15T08:05:57.637Z,0.20
2022-11-15T08:08:23.939Z,0.20
2022-11-15T08:10:50.158Z,0.30
2022-11-15T08:13:16.439Z,0.50
2022-11-15T08:15:43.688Z,0.30
2022-11-15T08:18:12.767Z,0.28
2022-11-15T08:20:39.038Z,0.30
2022-11-15T08:23:06.038Z,0.40
2022-11-15T08:25:32.960Z,0.30
2022-11-15T08:28:00.597Z,0.30
2022-11-15T08:30:27.258Z,0.43
2022-11-15T08:32:54.607Z,0.20
2022-11-15T08:35:24.890Z,0.20
2022-11-15T08:37:55.079Z,0.30
2022-11-15T08:40:21.496Z,0.22
2022-11-15T08:42:48.544Z,0.30
2022-11-15T08:45:15.028Z,0.32
2022-11-15T08:47:41.267Z,0.47
2022-11-15T08:50:07.949Z,0.38
2022-11-15T08:52:34.286Z,0.35
2022-11-15T08:55:00.528Z,0.20
2022-11-15T08:57:29.357Z,0.15
2022-11-15T08:59:55.667Z,0.22
2022-11-15T09:02:22.064Z,0.52
2022-11-15T09:04:49.016Z,0.25
2022-11-15T09:07:15.333Z,0.20
2022-11-15T09:09:41.616Z,0.17
2022-11-15T09:12:08.199Z,0.10
2022-11-15T09:14:34.798Z,0.20
2022-11-15T09:17:01.459Z,0.32
2022-11-15T09:19:27.689Z,0.25
2022-11-15T09:21:53.958Z,0.45
2022-11-15T09:24:20.170Z,0.75
2022-11-15T09:26:46.469Z,0.10
2022-11-15T09:29:12.776Z,0.10
2022-11-15T09:31:39.025Z,0.40
2022-11-15T09:34:05.332Z,0.10
2022-11-15T09:36:31.551Z,0.30
2022-11-15T09:38:58.700Z,0.15
2022-11-15T09:41:43.410Z,0.20
2022-11-15T09:44:35.964Z,0.10
2022-11-15T09:49:30.243Z,0.10
2022-11-15T09:51:56.698Z,0.20
2022-11-15T09:57:16.511Z,0.28
2022-11-15T10:00:23.749Z,0.13
2022-11-15T10:03:06.669Z,0.10
2022-11-15T10:05:36.200Z,0.10
2022-11-15T10:08:05.228Z,0.10
2022-11-15T10:10:40.745Z,0.20
2022-11-15T10:13:13.912Z,0.00
2022-11-15T10:15:42.101Z,0.25
2022-11-15T10:18:14.444Z,0.10
2022-11-15T10:20:51.595Z,0.10
2022-11-15T10:23:19.541Z,0.32
2022-11-15T10:25:46.247Z,0.10
2022-11-15T10:28:17.453Z,0.10
2022-11-15T10:30:45.791Z,0.08
2022-11-15T10:33:20.754Z,0.17
2022-11-15T10:35:46.969Z,0.08
2022-11-15T10:38:13.342Z,0.03
2022-11-15T10:40:40.642Z,0.10
2022-11-15T10:43:10.197Z,0.00
2022-11-15T10:45:37.002Z,0.20
2022-11-15T10:48:15.126Z,0.20
2022-11-15T10:50:42.479Z,0.15
2022-11-15T10:53:17.851Z,0.10
2022-11-15T10:55:47.386Z,0.35
2022-11-15T10:58:28.820Z,0.20
2022-11-15T11:00:55.256Z,0.10
2022-11-15T11:03:28.116Z,0.03
2022-11-15T11:06:04.496Z,0.10
2022-11-15T11:08:31.072Z,0.65
2022-11-15T11:11:02.509Z,0.10
2022-11-15T11:13:31.156Z,0.00
2022-11-15T11:16:12.586Z,0.00
2022-11-15T11:18:44.572Z,0.37
2022-11-15T11:21:12.826Z,0.10
2022-11-15T11:23:46.805Z,0.10
2022-11-15T11:26:19.393Z,0.00
2022-11-15T11:29:07.491Z,0.10
2022-11-15T11:31:48.421Z,0.20
2022-11-15T11:34:33.429Z,0.00
2022-11-15T11:37:03.798Z,0.00
2022-11-15T11:39:48.421Z,0.10
2022-11-15T11:42:18.904Z,0.10
2022-11-15T11:44:56.871Z,0.05
2022-11-15T11:47:31.421Z,0.20
2022-11-15T11:50:01.659Z,0.10
2022-11-15T11:52:43.927Z,0.00
2022-11-15T11:57:36.336Z,0.10
2022-11-15T12:00:14.930Z,0.17
2022-11-15T12:02:48.006Z,0.20
2022-11-15T12:05:18.091Z,0.10
2022-11-15T12:07:45.772Z,0.10
2022-11-15T12:10:21.654Z,0.20
2022-11-15T12:12:47.858Z,0.13
2022-11-15T12:15:17.804Z,0.05
2022-11-15T12:17:45.105Z,0.00
2022-11-15T12:20:19.737Z,0.35
2022-11-15T12:23:00.903Z,0.45
2022-11-15T12:25:47.443Z,0.30
2022-11-15T12:28:20.699Z,0.10
2022-11-15T12:30:50.950Z,0.20
2022-11-15T12:33:37.363Z,0.20
2022-11-15T12:36:05.758Z,0.17
2022-11-15T12:38:50.960Z,0.00
2022-11-15T12:41:19.066Z,0.32
2022-11-15T12:43:46.431Z,0.00
2022-11-15T12:46:31.069Z,0.10
2022-11-15T12:49:01.720Z,0.40
2022-11-15T12:51:43.102Z,0.10
2022-11-15T12:54:24.584Z,0.20
2022-11-15T12:57:09.137Z,0.20
2022-11-15T13:00:05.113Z,0.00
2022-11-15T13:02:35.905Z,0.10
2022-11-15T13:05:20.393Z,0.20
2022-11-15T13:07:46.658Z,0.20
2022-11-15T13:10:12.927Z,0.10
2022-11-15T13:12:42.497Z,0.10
2022-11-15T13:15:14.935Z,0.10
2022-11-15T13:17:44.975Z,0.28
2022-11-15T13:20:17.228Z,0.20
2022-11-15T13:23:00.131Z,0.03
2022-11-15T13:25:44.588Z,0.70
2022-11-15T13:28:10.825Z,0.20
2022-11-15T13:30:37.845Z,0.30
2022-11-15T13:33:24.330Z,0.13
2022-11-15T13:35:52.486Z,0.10
2022-11-15T13:38:35.589Z,0.30
2022-11-15T13:41:12.850Z,0.13
2022-11-15T13:43:39.204Z,0.22
2022-11-15T13:46:05.418Z,0.00
2022-11-15T13:48:31.835Z,0.10
2022-11-15T13:50:58.726Z,0.00
2022-11-15T13:53:25.208Z,0.13
2022-11-15T13:55:52.679Z,0.10
2022-11-15T13:58:23.897Z,0.10
2022-11-15T14:00:58.702Z,0.22
2022-11-15T14:03:26.405Z,0.10
2022-11-15T14:06:12.381Z,0.10
2022-11-15T14:09:01.718Z,0.10
2022-11-15T14:11:28.301Z,0.20
2022-11-15T14:14:14.263Z,0.52
2022-11-15T14:16:41.860Z,0.20
2022-11-15T14:19:11.007Z,0.10
2022-11-15T14:21:38.002Z,0.13
2022-11-15T14:24:17.972Z,0.10
2022-11-15T14:26:44.789Z,0.35
2022-11-15T14:29:30.163Z,0.08
2022-11-15T14:32:15.242Z,0.28
2022-11-15T14:34:42.107Z,0.35
2022-11-15T14:37:20.158Z,0.17
2022-11-15T14:39:46.500Z,0.55
2022-11-15T14:42:12.713Z,0.10
2022-11-15T14:44:42.283Z,0.35
2022-11-15T14:47:11.914Z,0.05
2022-11-15T14:49:38.143Z,0.22
2022-11-15T14:52:08.312Z,0.08
2022-11-15T14:54:34.562Z,0.15
2022-11-15T14:57:00.796Z,0.10
2022-11-15T14:59:27.038Z,0.10
2022-11-15T15:01:53.256Z,0.10
2022-11-15T15:04:19.527Z,0.10
2022-11-15T15:06:46.103Z,0.10
2022-11-15T15:09:12.449Z,0.10
2022-11-15T15:11:38.729Z,0.20
2022-11-15T15:14:04.960Z,0.20
2022-11-15T15:16:31.224Z,0.10
2022-11-15T15:18:57.464Z,0.08
2022-11-15T15:21:33.568Z,0.05
2022-11-15T15:24:01.879Z,0.32
2022-11-15T15:26:28.587Z,0.05
2022-11-15T15:28:54.963Z,0.10
2022-11-15T15:31:21.395Z,0.35
2022-11-15T15:33:47.650Z,0.20
2022-11-15T15:36:14.726Z,0.10
2022-11-15T15:38:42.227Z,0.10
2022-11-15T15:41:15.568Z,0.10
2022-11-15T15:43:41.844Z,0.00
2022-11-15T15:46:12.721Z,0.00
2022-11-15T15:48:40.335Z,0.00
2022-11-15T15:51:14.116Z,0.10
2022-11-15T15:53:45.066Z,0.17
2022-11-15T15:56:11.293Z,0.00
2022-11-15T15:58:37.570Z,0.10
2022-11-15T16:01:04.107Z,0.10
2022-11-15T16:03:30.402Z,0.00
2022-11-15T16:05:56.682Z,0.00
2022-11-15T16:08:23.793Z,0.10
2022-11-15T16:10:50.497Z,0.20
2022-11-15T16:13:16.723Z,0.30
2022-11-15T16:15:43.380Z,0.22
2022-11-15T16:18:13.373Z,0.05
2022-11-15T16:20:41.934Z,0.08
2022-11-15T16:23:09.964Z,0.03
2022-11-15T16:25:41.939Z,0.15
2022-11-15T16:28:21.734Z,0.00
2022-11-15T16:30:53.738Z,0.17
2022-11-15T16:33:22.798Z,0.20
2022-11-15T16:35:49.015Z,0.08
2022-11-15T16:38:18.792Z,0.10
2022-11-15T16:40:45.478Z,0.25
2022-11-15T16:43:11.772Z,0.00
2022-11-15T16:45:37.990Z,0.00
2022-11-15T16:48:04.482Z,0.10
2022-11-15T16:50:32.770Z,0.35
2022-11-15T16:52:59.583Z,0.10
2022-11-15T16:55:27.926Z,0.17
2022-11-15T16:57:55.161Z,0.00
2022-11-15T17:00:22.426Z,0.00
2022-11-15T17:02:49.572Z,0.10
2022-11-15T17:05:20.383Z,0.20
2022-11-15T17:07:49.000Z,0.10
2022-11-15T17:10:15.229Z,0.10
2022-11-15T17:12:41.598Z,0.35
2022-11-15T17:15:08.202Z,0.10
2022-11-15T17:17:34.424Z,0.17
2022-11-15T17:20:00.709Z,0.40
2022-11-15T17:22:26.946Z,0.00
2022-11-15T17:24:53.157Z,0.13
2022-11-15T17:27:21.702Z,0.10
2022-11-15T17:29:47.987Z,0.20
2022-11-15T17:32:14.208Z,0.00
2022-11-15T17:34:40.489Z,0.10
2022-11-15T17:37:06.719Z,0.10
2022-11-15T17:39:32.946Z,0.00
2022-11-15T17:41:59.215Z,0.52
2022-11-15T17:44:25.462Z,0.00
2022-11-15T17:46:51.705Z,0.52
2022-11-15T17:49:17.918Z,0.20
2022-11-15T17:51:48.823Z,0.00
2022-11-15T17:56:42.522Z,0.17
2022-11-15T17:59:13.799Z,0.10
2022-11-15T18:01:42.262Z,0.20
2022-11-15T18:04:09.077Z,0.40
2022-11-15T18:06:36.118Z,0.00
2022-11-15T18:09:03.519Z,0.10
2022-11-15T18:11:34.293Z,0.17
2022-11-15T18:14:01.862Z,0.00
2022-11-15T18:16:30.802Z,0.30
2022-11-15T18:18:57.366Z,0.03
2022-11-15T18:21:25.199Z,0.08
2022-11-15T18:23:55.399Z,0.10
2022-11-15T18:26:27.114Z,0.10
2022-11-15T18:28:54.887Z,0.15
2022-11-15T18:31:22.812Z,0.88
2022-11-15T18:33:50.274Z,0.05
2022-11-15T18:36:22.470Z,0.10
2022-11-15T18:38:53.426Z,0.10
2022-11-15T18:41:20.632Z,0.10
2022-11-15T18:43:50.187Z,0.00
2022-11-15T18:46:17.521Z,0.10
2022-11-15T18:48:44.633Z,0.05
2022-11-15T18:51:12.671Z,0.10
2022-11-15T18:53:39.383Z,0.10
2022-11-15T18:56:10.277Z,0.05
2022-11-15T18:58:37.932Z,0.00
2022-11-15T19:01:09.288Z,0.15
2022-11-15T19:03:37.047Z,0.00
2022-11-15T19:06:04.821Z,0.10
2022-11-15T19:08:35.198Z,0.20
2022-11-15T19:11:07.735Z,0.15
2022-11-15T19:16:01.311Z,0.00
2022-11-15T19:18:27.940Z,0.10
2022-11-15T19:20:55.975Z,0.10
2022-11-15T19:23:22.669Z,0.10
2022-11-15T19:25:55.759Z,0.35
2022-11-15T19:28:22.040Z,0.00
2022-11-15T19:30:48.265Z,0.00
2022-11-15T19:33:14.634Z,0.10
2022-11-15T19:35:40.921Z,0.00
2022-11-15T19:38:07.185Z,0.00
2022-11-15T19:40:33.676Z,0.10
2022-11-15T19:42:59.912Z,0.15
2022-11-15T19:45:26.159Z,0.00
2022-11-15T19:47:52.484Z,0.10
2022-11-15T19:50:18.957Z,0.10
2022-11-15T19:52:45.781Z,0.10
2022-11-15T19:55:12.326Z,0.10
2022-11-15T19:57:38.746Z,0.10
2022-11-15T20:00:07.384Z,0.08
2022-11-15T20:02:34.246Z,0.10
2022-11-15T20:05:00.479Z,0.22
2022-11-15T20:07:26.737Z,0.10
2022-11-15T20:09:53.775Z,0.10
2022-11-15T20:12:20.048Z,0.10
2022-11-15T20:14:46.586Z,0.10
2022-11-15T20:17:13.819Z,0.00
2022-11-15T20:19:40.096Z,0.00
2022-11-15T20:22:06.346Z,0.00
2022-11-15T20:24:32.647Z,0.00
2022-11-15T20:26:58.869Z,0.00
2022-11-15T20:29:25.086Z,0.00
2022-11-15T20:31:51.298Z,0.08
2022-11-15T20:34:17.510Z,0.10
2022-11-15T20:36:43.793Z,0.17
2022-11-15T20:39:10.012Z,0.00
2022-11-15T20:41:36.319Z,0.20
2022-11-15T20:44:03.019Z,0.17
2022-11-15T20:46:29.292Z,0.10
2022-11-15T20:48:55.522Z,0.00
2022-11-15T20:51:21.813Z,0.10
2022-11-15T20:53:48.592Z,0.32
2022-11-15T20:56:16.084Z,0.20
2022-11-15T20:58:42.664Z,0.10
2022-11-15T21:01:10.903Z,0.00
2022-11-15T21:03:37.297Z,0.10
2022-11-15T21:06:03.791Z,0.00
2022-11-15T21:08:50.108Z,0.00
2022-11-15T21:11:34.886Z,0.00
2022-11-15T21:14:03.945Z,0.00
2022-11-15T21:16:34.625Z,0.00
2022-11-15T21:19:00.875Z,0.00
2022-11-15T21:21:27.107Z,0.10
2022-11-15T21:23:53.329Z,0.10
2022-11-15T21:26:19.562Z,0.10
2022-11-15T21:28:45.822Z,0.00
2022-11-15T21:31:12.099Z,0.00
2022-11-15T21:33:38.317Z,0.00
2022-11-15T21:36:04.793Z,0.10
2022-11-15T21:38:31.512Z,0.10
2022-11-15T21:41:02.244Z,0.10
2022-11-15T21:43:28.478Z,0.08
2022-11-15T21:45:55.905Z,0.00
2022-11-15T21:48:22.133Z,0.10
2022-11-15T21:51:04.980Z,0.10
2022-11-15T21:53:32.027Z,0.05
2022-11-15T21:55:58.998Z,0.00
2022-11-15T21:58:25.612Z,0.00
2022-11-15T22:01:12.455Z,0.20
2022-11-15T22:03:38.927Z,0.00
2022-11-15T22:06:05.522Z,0.00
2022-11-15T22:08:32.165Z,0.17
2022-11-15T22:10:58.874Z,0.00
2022-11-15T22:13:25.742Z,0.00
2022-11-15T22:15:53.896Z,0.00
2022-11-15T22:18:26.009Z,0.10
2022-11-15T22:20:56.115Z,0.20
2022-11-15T22:23:22.556Z,0.00
2022-11-15T22:25:48.859Z,0.10
2022-11-15T22:28:15.164Z,0.08
2022-11-15T22:30:41.704Z,0.10
2022-11-15T22:33:08.005Z,0.47
2022-11-15T22:35:34.876Z,0.08
2022-11-15T22:38:01.132Z,0.00
2022-11-15T22:40:27.351Z,0.10
2022-11-15T22:42:53.818Z,0.13
2022-11-15T22:45:20.034Z,0.10
2022-11-15T22:47:46.256Z,0.10
2022-11-15T22:50:12.465Z,0.00
2022-11-15T22:52:38.847Z,0.00
2022-11-15T22:55:05.328Z,0.00
2022-11-15T22:57:31.545Z,0.08
2022-11-15T22:59:57.781Z,0.08
2022-11-15T23:02:25.817Z,0.00
2022-11-15T23:04:52.074Z,0.10
2022-11-15T23:07:18.318Z,0.00
2022-11-15T23:09:50.752Z,0.10
2022-11-15T23:12:37.043Z,0.00
2022-11-15T23:15:03.432Z,0.00
2022-11-15T23:17:30.569Z,0.00
2022-11-15T23:19:56.822Z,0.10
2022-11-15T23:22:42.054Z,0.00
2022-11-15T23:25:08.454Z,0.15
2022-11-15T23:27:34.686Z,0.10
2022-11-15T23:30:19.605Z,0.00
2022-11-15T23:33:04.253Z,0.08
2022-11-15T23:35:30.467Z,0.00
2022-11-15T23:37:56.755Z,0.10
2022-11-15T23:40:23.030Z,0.00
2022-11-15T23:42:49.864Z,0.10
2022-11-15T23:45:16.309Z,0.17
2022-11-15T23:47:45.453Z,0.13
2022-11-15T23:50:11.750Z,0.10
2022-11-15T23:52:37.991Z,0.00
2022-11-15T23:55:04.789Z,0.00
2022-11-15T23:57:30.999Z,0.15
